sensor_id;sensor_type;location;lat;lon;timestamp;P1;durP1;ratioP1;P2;durP2;ratioP2
37647;SDS011;23490;53.656;10.076;2024-02-26T00:00:14;12.10;;;7.43;;
37647;SDS011;23490;53.656;10.076;2024-02-26T00:02:40;15.98;;;7.85;;
37647;SDS011;23490;53.656;10.076;2024-02-26T00:05:06;12.30;;;6.65;;
37647;SDS011;23490;53.656;10.076;2024-02-26T00:07:32;13.73;;;7.93;;
37647;SDS011;23490;53.656;10.076;2024-02-26T00:09:58;13.13;;;7.43;;
37647;SDS011;23490;53.656;10.076;2024-02-26T00:12:23;13.15;;;6.85;;
37647;SDS011;23490;53.656;10.076;2024-02-26T00:14:49;12.13;;;6.63;;
37647;SDS011;23490;53.656;10.076;2024-02-26T00:17:14;13.63;;;7.40;;
37647;SDS011;23490;53.656;10.076;2024-02-26T00:19:40;12.25;;;7.50;;
37647;SDS011;23490;53.656;10.076;2024-02-26T00:22:06;13.52;;;7.07;;
37647;SDS011;23490;53.656;10.076;2024-02-26T00:24:31;13.55;;;7.25;;
37647;SDS011;23490;53.656;10.076;2024-02-26T00:26:58;13.35;;;7.28;;
37647;SDS011;23490;53.656;10.076;2024-02-26T00:29:24;13.32;;;7.05;;
37647;SDS011;23490;53.656;10.076;2024-02-26T00:31:50;10.50;;;6.28;;
37647;SDS011;23490;53.656;10.076;2024-02-26T00:34:16;10.18;;;6.10;;
37647;SDS011;23490;53.656;10.076;2024-02-26T00:36:41;12.13;;;6.90;;
37647;SDS011;23490;53.656;10.076;2024-02-26T00:39:07;15.90;;;7.85;;
37647;SDS011;23490;53.656;10.076;2024-02-26T00:41:42;14.55;;;8.07;;
37647;SDS011;23490;53.656;10.076;2024-02-26T00:44:07;14.52;;;7.47;;
37647;SDS011;23490;53.656;10.076;2024-02-26T00:46:33;13.52;;;7.15;;
37647;SDS011;23490;53.656;10.076;2024-02-26T00:48:58;15.48;;;7.75;;
37647;SDS011;23490;53.656;10.076;2024-02-26T00:51:24;14.65;;;7.50;;
37647;SDS011;23490;53.656;10.076;2024-02-26T00:53:49;13.88;;;7.20;;
37647;SDS011;23490;53.656;10.076;2024-02-26T00:56:14;13.70;;;7.25;;
37647;SDS011;23490;53.656;10.076;2024-02-26T00:58:40;12.90;;;7.10;;
37647;SDS011;23490;53.656;10.076;2024-02-26T01:01:05;17.27;;;8.20;;
37647;SDS011;23490;53.656;10.076;2024-02-26T01:03:30;17.67;;;8.73;;
37647;SDS011;23490;53.656;10.076;2024-02-26T01:05:56;14.65;;;7.70;;
37647;SDS011;23490;53.656;10.076;2024-02-26T01:08:21;16.10;;;8.18;;
37647;SDS011;23490;53.656;10.076;2024-02-26T01:10:46;18.63;;;8.32;;
37647;SDS011;23490;53.656;10.076;2024-02-26T01:13:12;15.95;;;8.50;;
37647;SDS011;23490;53.656;10.076;2024-02-26T01:15:37;15.48;;;7.90;;
37647;SDS011;23490;53.656;10.076;2024-02-26T01:18:03;15.32;;;8.07;;
37647;SDS011;23490;53.656;10.076;2024-02-26T01:20:28;17.13;;;9.00;;
37647;SDS011;23490;53.656;10.076;2024-02-26T01:22:53;17.38;;;8.85;;
37647;SDS011;23490;53.656;10.076;2024-02-26T01:25:19;19.13;;;9.27;;
37647;SDS011;23490;53.656;10.076;2024-02-26T01:27:44;19.77;;;9.65;;
37647;SDS011;23490;53.656;10.076;2024-02-26T01:30:10;16.02;;;8.75;;
37647;SDS011;23490;53.656;10.076;2024-02-26T01:32:36;15.15;;;8.15;;
37647;SDS011;23490;53.656;10.076;2024-02-26T01:35:01;16.63;;;8.73;;
37647;SDS011;23490;53.656;10.076;2024-02-26T01:37:28;18.45;;;7.85;;
37647;SDS011;23490;53.656;10.076;2024-02-26T01:39:55;15.07;;;7.70;;
37647;SDS011;23490;53.656;10.076;2024-02-26T01:42:20;15.38;;;7.82;;
37647;SDS011;23490;53.656;10.076;2024-02-26T01:44:46;16.45;;;8.13;;
37647;SDS011;23490;53.656;10.076;2024-02-26T01:47:11;15.02;;;7.85;;
37647;SDS011;23490;53.656;10.076;2024-02-26T01:49:38;19.77;;;8.93;;
37647;SDS011;23490;53.656;10.076;2024-02-26T01:52:04;16.00;;;7.85;;
37647;SDS011;23490;53.656;10.076;2024-02-26T01:54:31;16.15;;;8.18;;
37647;SDS011;23490;53.656;10.076;2024-02-26T01:56:58;14.02;;;7.90;;
37647;SDS011;23490;53.656;10.076;2024-02-26T01:59:24;17.50;;;8.43;;
37647;SDS011;23490;53.656;10.076;2024-02-26T02:01:51;14.32;;;7.82;;
37647;SDS011;23490;53.656;10.076;2024-02-26T02:04:20;14.93;;;7.82;;
37647;SDS011;23490;53.656;10.076;2024-02-26T02:06:48;18.35;;;7.97;;
37647;SDS011;23490;53.656;10.076;2024-02-26T02:09:13;18.52;;;8.50;;
37647;SDS011;23490;53.656;10.076;2024-02-26T02:11:39;17.48;;;8.77;;
37647;SDS011;23490;53.656;10.076;2024-02-26T02:14:04;16.48;;;8.40;;
37647;SDS011;23490;53.656;10.076;2024-02-26T02:16:31;20.38;;;9.43;;
37647;SDS011;23490;53.656;10.076;2024-02-26T02:18:57;20.77;;;8.65;;
37647;SDS011;23490;53.656;10.076;2024-02-26T02:21:23;18.77;;;9.65;;
37647;SDS011;23490;53.656;10.076;2024-02-26T02:23:48;18.25;;;9.30;;
37647;SDS011;23490;53.656;10.076;2024-02-26T02:26:14;16.73;;;8.25;;
37647;SDS011;23490;53.656;10.076;2024-02-26T02:28:40;17.90;;;8.98;;
37647;SDS011;23490;53.656;10.076;2024-02-26T02:31:06;18.27;;;9.48;;
37647;SDS011;23490;53.656;10.076;2024-02-26T02:33:32;18.55;;;8.93;;
37647;SDS011;23490;53.656;10.076;2024-02-26T02:35:59;16.90;;;8.80;;
37647;SDS011;23490;53.656;10.076;2024-02-26T02:38:24;16.67;;;8.90;;
37647;SDS011;23490;53.656;10.076;2024-02-26T02:40:51;17.83;;;7.95;;
37647;SDS011;23490;53.656;10.076;2024-02-26T02:43:17;15.50;;;8.38;;
37647;SDS011;23490;53.656;10.076;2024-02-26T02:45:42;17.58;;;8.55;;
37647;SDS011;23490;53.656;10.076;2024-02-26T02:48:07;16.08;;;8.43;;
37647;SDS011;23490;53.656;10.076;2024-02-26T02:50:33;14.82;;;7.75;;
37647;SDS011;23490;53.656;10.076;2024-02-26T02:52:58;17.35;;;8.45;;
37647;SDS011;23490;53.656;10.076;2024-02-26T02:55:23;16.63;;;8.30;;
37647;SDS011;23490;53.656;10.076;2024-02-26T02:57:49;23.80;;;9.10;;
37647;SDS011;23490;53.656;10.076;2024-02-26T03:00:14;19.00;;;8.63;;
37647;SDS011;23490;53.656;10.076;2024-02-26T03:02:40;18.55;;;9.23;;
37647;SDS011;23490;53.656;10.076;2024-02-26T03:05:05;15.40;;;8.38;;
37647;SDS011;23490;53.656;10.076;2024-02-26T03:07:32;19.77;;;8.70;;
37647;SDS011;23490;53.656;10.076;2024-02-26T03:09:57;17.25;;;8.63;;
37647;SDS011;23490;53.656;10.076;2024-02-26T03:12:23;21.80;;;9.77;;
37647;SDS011;23490;53.656;10.076;2024-02-26T03:14:49;18.48;;;7.80;;
37647;SDS011;23490;53.656;10.076;2024-02-26T03:17:14;14.65;;;8.07;;
37647;SDS011;23490;53.656;10.076;2024-02-26T03:19:40;17.40;;;9.07;;
37647;SDS011;23490;53.656;10.076;2024-02-26T03:22:06;18.67;;;8.48;;
37647;SDS011;23490;53.656;10.076;2024-02-26T03:24:32;17.10;;;8.68;;
37647;SDS011;23490;53.656;10.076;2024-02-26T03:26:57;17.50;;;8.68;;
37647;SDS011;23490;53.656;10.076;2024-02-26T03:29:22;15.63;;;8.35;;
37647;SDS011;23490;53.656;10.076;2024-02-26T03:31:48;18.52;;;8.70;;
37647;SDS011;23490;53.656;10.076;2024-02-26T03:34:13;20.85;;;8.57;;
37647;SDS011;23490;53.656;10.076;2024-02-26T03:36:39;16.88;;;8.38;;
37647;SDS011;23490;53.656;10.076;2024-02-26T03:39:05;16.33;;;7.85;;
37647;SDS011;23490;53.656;10.076;2024-02-26T03:41:32;17.08;;;7.72;;
37647;SDS011;23490;53.656;10.076;2024-02-26T03:43:58;17.40;;;7.82;;
37647;SDS011;23490;53.656;10.076;2024-02-26T03:46:24;15.73;;;8.93;;
37647;SDS011;23490;53.656;10.076;2024-02-26T03:48:49;18.50;;;8.18;;
37647;SDS011;23490;53.656;10.076;2024-02-26T03:51:14;18.25;;;8.93;;
37647;SDS011;23490;53.656;10.076;2024-02-26T03:53:40;17.73;;;8.55;;
37647;SDS011;23490;53.656;10.076;2024-02-26T03:56:05;17.42;;;9.05;;
37647;SDS011;23490;53.656;10.076;2024-02-26T03:58:31;16.42;;;8.73;;
37647;SDS011;23490;53.656;10.076;2024-02-26T04:00:57;15.68;;;7.78;;
37647;SDS011;23490;53.656;10.076;2024-02-26T04:03:22;16.70;;;7.85;;
37647;SDS011;23490;53.656;10.076;2024-02-26T04:05:47;18.73;;;8.23;;
37647;SDS011;23490;53.656;10.076;2024-02-26T04:08:13;17.38;;;7.70;;
37647;SDS011;23490;53.656;10.076;2024-02-26T04:10:38;14.02;;;7.20;;
37647;SDS011;23490;53.656;10.076;2024-02-26T04:13:04;17.05;;;8.18;;
37647;SDS011;23490;53.656;10.076;2024-02-26T04:15:30;16.52;;;8.75;;
37647;SDS011;23490;53.656;10.076;2024-02-26T04:17:56;18.80;;;8.95;;
37647;SDS011;23490;53.656;10.076;2024-02-26T04:20:22;17.48;;;8.18;;
37647;SDS011;23490;53.656;10.076;2024-02-26T04:22:47;15.82;;;8.27;;
37647;SDS011;23490;53.656;10.076;2024-02-26T04:25:12;16.52;;;7.88;;
37647;SDS011;23490;53.656;10.076;2024-02-26T04:27:38;15.95;;;8.05;;
37647;SDS011;23490;53.656;10.076;2024-02-26T04:30:04;15.85;;;7.28;;
37647;SDS011;23490;53.656;10.076;2024-02-26T04:32:31;14.43;;;7.22;;
37647;SDS011;23490;53.656;10.076;2024-02-26T04:34:56;15.32;;;7.95;;
37647;SDS011;23490;53.656;10.076;2024-02-26T04:37:22;19.00;;;7.90;;
37647;SDS011;23490;53.656;10.076;2024-02-26T04:39:48;16.70;;;8.52;;
37647;SDS011;23490;53.656;10.076;2024-02-26T04:42:13;16.67;;;7.88;;
37647;SDS011;23490;53.656;10.076;2024-02-26T04:44:39;17.58;;;8.82;;
37647;SDS011;23490;53.656;10.076;2024-02-26T04:47:04;16.38;;;8.00;;
37647;SDS011;23490;53.656;10.076;2024-02-26T04:49:30;16.52;;;7.82;;
37647;SDS011;23490;53.656;10.076;2024-02-26T04:51:55;16.63;;;8.00;;
37647;SDS011;23490;53.656;10.076;2024-02-26T04:54:20;16.70;;;8.07;;
37647;SDS011;23490;53.656;10.076;2024-02-26T04:56:46;17.33;;;7.88;;
37647;SDS011;23490;53.656;10.076;2024-02-26T04:59:11;15.70;;;8.27;;
37647;SDS011;23490;53.656;10.076;2024-02-26T05:01:37;15.30;;;7.82;;
37647;SDS011;23490;53.656;10.076;2024-02-26T05:04:02;16.98;;;8.15;;
37647;SDS011;23490;53.656;10.076;2024-02-26T05:06:30;15.45;;;7.10;;
37647;SDS011;23490;53.656;10.076;2024-02-26T05:08:56;16.98;;;7.63;;
37647;SDS011;23490;53.656;10.076;2024-02-26T05:11:21;16.08;;;7.75;;
37647;SDS011;23490;53.656;10.076;2024-02-26T05:13:47;15.80;;;8.57;;
37647;SDS011;23490;53.656;10.076;2024-02-26T05:16:13;16.45;;;7.38;;
37647;SDS011;23490;53.656;10.076;2024-02-26T05:18:39;18.52;;;9.25;;
37647;SDS011;23490;53.656;10.076;2024-02-26T05:21:04;14.77;;;8.20;;
37647;SDS011;23490;53.656;10.076;2024-02-26T05:23:29;16.63;;;7.38;;
37647;SDS011;23490;53.656;10.076;2024-02-26T05:25:55;17.45;;;7.97;;
37647;SDS011;23490;53.656;10.076;2024-02-26T05:28:20;15.30;;;7.82;;
37647;SDS011;23490;53.656;10.076;2024-02-26T05:30:46;17.10;;;7.82;;
37647;SDS011;23490;53.656;10.076;2024-02-26T05:33:11;14.77;;;7.25;;
37647;SDS011;23490;53.656;10.076;2024-02-26T05:35:37;18.13;;;7.70;;
37647;SDS011;23490;53.656;10.076;2024-02-26T05:38:02;13.77;;;7.03;;
37647;SDS011;23490;53.656;10.076;2024-02-26T05:40:28;16.30;;;7.80;;
37647;SDS011;23490;53.656;10.076;2024-02-26T05:42:53;15.57;;;7.38;;
37647;SDS011;23490;53.656;10.076;2024-02-26T05:45:19;13.82;;;7.75;;
37647;SDS011;23490;53.656;10.076;2024-02-26T05:47:44;15.35;;;7.78;;
37647;SDS011;23490;53.656;10.076;2024-02-26T05:50:10;16.95;;;7.82;;
37647;SDS011;23490;53.656;10.076;2024-02-26T05:52:36;18.50;;;6.90;;
37647;SDS011;23490;53.656;10.076;2024-02-26T05:55:03;19.02;;;8.05;;
37647;SDS011;23490;53.656;10.076;2024-02-26T05:57:29;18.10;;;8.02;;
37647;SDS011;23490;53.656;10.076;2024-02-26T05:59:54;16.65;;;7.82;;
37647;SDS011;23490;53.656;10.076;2024-02-26T06:02:20;19.23;;;8.60;;
37647;SDS011;23490;53.656;10.076;2024-02-26T06:04:45;18.23;;;8.27;;
37647;SDS011;23490;53.656;10.076;2024-02-26T06:07:11;17.33;;;8.00;;
37647;SDS011;23490;53.656;10.076;2024-02-26T06:09:36;20.48;;;8.23;;
37647;SDS011;23490;53.656;10.076;2024-02-26T06:12:02;16.50;;;8.05;;
37647;SDS011;23490;53.656;10.076;2024-02-26T06:14:27;17.63;;;7.60;;
37647;SDS011;23490;53.656;10.076;2024-02-26T06:16:53;18.33;;;8.07;;
37647;SDS011;23490;53.656;10.076;2024-02-26T06:19:18;15.77;;;8.13;;
37647;SDS011;23490;53.656;10.076;2024-02-26T06:21:44;32.47;;;10.05;;
37647;SDS011;23490;53.656;10.076;2024-02-26T06:24:09;22.98;;;8.20;;
37647;SDS011;23490;53.656;10.076;2024-02-26T06:26:34;33.17;;;9.93;;
37647;SDS011;23490;53.656;10.076;2024-02-26T06:29:01;24.02;;;7.45;;
37647;SDS011;23490;53.656;10.076;2024-02-26T06:31:26;26.95;;;7.90;;
37647;SDS011;23490;53.656;10.076;2024-02-26T06:33:53;23.45;;;8.30;;
37647;SDS011;23490;53.656;10.076;2024-02-26T06:36:18;27.50;;;8.10;;
37647;SDS011;23490;53.656;10.076;2024-02-26T06:38:44;26.30;;;9.02;;
37647;SDS011;23490;53.656;10.076;2024-02-26T06:41:09;26.40;;;8.57;;
37647;SDS011;23490;53.656;10.076;2024-02-26T06:43:36;17.05;;;7.75;;
37647;SDS011;23490;53.656;10.076;2024-02-26T06:46:02;20.27;;;8.68;;
37647;SDS011;23490;53.656;10.076;2024-02-26T06:48:27;19.40;;;7.82;;
37647;SDS011;23490;53.656;10.076;2024-02-26T06:50:52;18.48;;;8.43;;
37647;SDS011;23490;53.656;10.076;2024-02-26T06:53:17;17.98;;;8.23;;
37647;SDS011;23490;53.656;10.076;2024-02-26T06:55:43;19.38;;;8.35;;
37647;SDS011;23490;53.656;10.076;2024-02-26T06:58:08;20.55;;;8.75;;
37647;SDS011;23490;53.656;10.076;2024-02-26T07:00:34;15.27;;;7.22;;
37647;SDS011;23490;53.656;10.076;2024-02-26T07:03:02;29.60;;;9.40;;
37647;SDS011;23490;53.656;10.076;2024-02-26T07:05:28;23.05;;;8.65;;
37647;SDS011;23490;53.656;10.076;2024-02-26T07:07:53;25.52;;;9.02;;
37647;SDS011;23490;53.656;10.076;2024-02-26T07:10:19;28.02;;;10.15;;
37647;SDS011;23490;53.656;10.076;2024-02-26T07:12:44;19.42;;;8.95;;
37647;SDS011;23490;53.656;10.076;2024-02-26T07:15:10;22.15;;;9.32;;
37647;SDS011;23490;53.656;10.076;2024-02-26T07:17:35;20.45;;;9.50;;
37647;SDS011;23490;53.656;10.076;2024-02-26T07:20:01;18.95;;;8.32;;
37647;SDS011;23490;53.656;10.076;2024-02-26T07:22:29;19.05;;;8.93;;
37647;SDS011;23490;53.656;10.076;2024-02-26T07:24:55;21.33;;;9.30;;
37647;SDS011;23490;53.656;10.076;2024-02-26T07:27:20;19.25;;;9.27;;
37647;SDS011;23490;53.656;10.076;2024-02-26T07:29:46;23.70;;;9.43;;
37647;SDS011;23490;53.656;10.076;2024-02-26T07:32:11;18.10;;;8.43;;
37647;SDS011;23490;53.656;10.076;2024-02-26T07:34:37;18.65;;;9.77;;
37647;SDS011;23490;53.656;10.076;2024-02-26T07:37:06;23.73;;;10.20;;
37647;SDS011;23490;53.656;10.076;2024-02-26T07:39:31;22.23;;;9.85;;
37647;SDS011;23490;53.656;10.076;2024-02-26T07:41:59;21.80;;;9.20;;
37647;SDS011;23490;53.656;10.076;2024-02-26T07:44:27;23.23;;;9.93;;
37647;SDS011;23490;53.656;10.076;2024-02-26T07:46:53;23.30;;;9.77;;
37647;SDS011;23490;53.656;10.076;2024-02-26T07:49:18;23.00;;;10.55;;
37647;SDS011;23490;53.656;10.076;2024-02-26T07:51:44;33.75;;;10.60;;
37647;SDS011;23490;53.656;10.076;2024-02-26T07:54:09;25.42;;;9.85;;
37647;SDS011;23490;53.656;10.076;2024-02-26T07:56:35;26.48;;;10.27;;
37647;SDS011;23490;53.656;10.076;2024-02-26T07:59:00;26.58;;;10.60;;
37647;SDS011;23490;53.656;10.076;2024-02-26T08:01:25;27.95;;;11.77;;
37647;SDS011;23490;53.656;10.076;2024-02-26T08:03:52;26.70;;;9.10;;
37647;SDS011;23490;53.656;10.076;2024-02-26T08:06:20;37.95;;;10.10;;
37647;SDS011;23490;53.656;10.076;2024-02-26T08:08:46;21.25;;;9.02;;
37647;SDS011;23490;53.656;10.076;2024-02-26T08:11:13;28.85;;;10.15;;
37647;SDS011;23490;53.656;10.076;2024-02-26T08:13:39;24.90;;;9.55;;
37647;SDS011;23490;53.656;10.076;2024-02-26T08:16:05;24.83;;;9.90;;
37647;SDS011;23490;53.656;10.076;2024-02-26T08:18:30;23.73;;;8.45;;
37647;SDS011;23490;53.656;10.076;2024-02-26T08:20:56;19.65;;;8.68;;
37647;SDS011;23490;53.656;10.076;2024-02-26T08:23:21;20.67;;;9.45;;
37647;SDS011;23490;53.656;10.076;2024-02-26T08:25:47;20.85;;;8.40;;
37647;SDS011;23490;53.656;10.076;2024-02-26T08:28:13;21.17;;;8.50;;
37647;SDS011;23490;53.656;10.076;2024-02-26T08:30:39;20.23;;;10.13;;
37647;SDS011;23490;53.656;10.076;2024-02-26T08:33:04;20.17;;;8.75;;
37647;SDS011;23490;53.656;10.076;2024-02-26T08:35:29;22.80;;;9.50;;
37647;SDS011;23490;53.656;10.076;2024-02-26T08:37:55;20.88;;;9.20;;
37647;SDS011;23490;53.656;10.076;2024-02-26T08:40:20;21.67;;;9.70;;
37647;SDS011;23490;53.656;10.076;2024-02-26T08:42:46;27.23;;;10.02;;
37647;SDS011;23490;53.656;10.076;2024-02-26T08:45:11;23.45;;;7.97;;
37647;SDS011;23490;53.656;10.076;2024-02-26T08:47:40;23.17;;;9.05;;
37647;SDS011;23490;53.656;10.076;2024-02-26T08:50:05;22.90;;;8.85;;
37647;SDS011;23490;53.656;10.076;2024-02-26T08:52:31;23.55;;;9.95;;
37647;SDS011;23490;53.656;10.076;2024-02-26T08:54:56;22.05;;;9.55;;
37647;SDS011;23490;53.656;10.076;2024-02-26T08:57:22;22.20;;;9.20;;
37647;SDS011;23490;53.656;10.076;2024-02-26T08:59:47;20.10;;;8.73;;
37647;SDS011;23490;53.656;10.076;2024-02-26T09:02:13;19.83;;;8.70;;
37647;SDS011;23490;53.656;10.076;2024-02-26T09:04:38;22.13;;;8.63;;
37647;SDS011;23490;53.656;10.076;2024-02-26T09:07:04;20.80;;;9.27;;
37647;SDS011;23490;53.656;10.076;2024-02-26T09:09:29;21.10;;;9.55;;
37647;SDS011;23490;53.656;10.076;2024-02-26T09:11:55;25.65;;;10.30;;
37647;SDS011;23490;53.656;10.076;2024-02-26T09:14:21;22.95;;;10.10;;
37647;SDS011;23490;53.656;10.076;2024-02-26T09:16:47;26.52;;;9.85;;
37647;SDS011;23490;53.656;10.076;2024-02-26T09:19:15;22.83;;;10.02;;
37647;SDS011;23490;53.656;10.076;2024-02-26T09:21:43;21.83;;;9.18;;
37647;SDS011;23490;53.656;10.076;2024-02-26T09:24:12;25.52;;;9.45;;
37647;SDS011;23490;53.656;10.076;2024-02-26T09:26:37;23.98;;;9.48;;
37647;SDS011;23490;53.656;10.076;2024-02-26T09:29:03;23.73;;;9.57;;
37647;SDS011;23490;53.656;10.076;2024-02-26T09:31:29;22.67;;;10.02;;
37647;SDS011;23490;53.656;10.076;2024-02-26T09:33:55;25.20;;;10.18;;
37647;SDS011;23490;53.656;10.076;2024-02-26T09:36:20;20.60;;;9.05;;
37647;SDS011;23490;53.656;10.076;2024-02-26T09:38:46;24.13;;;10.30;;
37647;SDS011;23490;53.656;10.076;2024-02-26T09:41:15;19.73;;;10.07;;
37647;SDS011;23490;53.656;10.076;2024-02-26T09:43:44;21.65;;;10.00;;
37647;SDS011;23490;53.656;10.076;2024-02-26T09:46:11;25.25;;;10.68;;
37647;SDS011;23490;53.656;10.076;2024-02-26T09:48:37;21.58;;;9.65;;
37647;SDS011;23490;53.656;10.076;2024-02-26T09:51:03;24.85;;;10.68;;
37647;SDS011;23490;53.656;10.076;2024-02-26T09:53:29;22.98;;;9.82;;
37647;SDS011;23490;53.656;10.076;2024-02-26T09:55:57;22.27;;;9.30;;
37647;SDS011;23490;53.656;10.076;2024-02-26T09:58:22;27.48;;;10.95;;
37647;SDS011;23490;53.656;10.076;2024-02-26T10:00:51;25.75;;;10.60;;
37647;SDS011;23490;53.656;10.076;2024-02-26T10:03:18;28.50;;;10.38;;
37647;SDS011;23490;53.656;10.076;2024-02-26T10:05:46;25.55;;;10.20;;
37647;SDS011;23490;53.656;10.076;2024-02-26T10:08:15;23.40;;;10.15;;
37647;SDS011;23490;53.656;10.076;2024-02-26T10:10:43;22.50;;;10.52;;
37647;SDS011;23490;53.656;10.076;2024-02-26T10:13:09;21.23;;;9.45;;
37647;SDS011;23490;53.656;10.076;2024-02-26T10:15:37;22.67;;;9.95;;
37647;SDS011;23490;53.656;10.076;2024-02-26T10:18:05;24.65;;;9.70;;
37647;SDS011;23490;53.656;10.076;2024-02-26T10:20:31;25.60;;;10.80;;
37647;SDS011;23490;53.656;10.076;2024-02-26T10:22:57;20.17;;;9.80;;
37647;SDS011;23490;53.656;10.076;2024-02-26T10:25:23;24.77;;;11.00;;
37647;SDS011;23490;53.656;10.076;2024-02-26T10:27:49;26.50;;;10.77;;
37647;SDS011;23490;53.656;10.076;2024-02-26T10:32:45;23.17;;;9.43;;
37647;SDS011;23490;53.656;10.076;2024-02-26T10:35:14;25.02;;;11.27;;
37647;SDS011;23490;53.656;10.076;2024-02-26T10:37:40;25.48;;;9.82;;
37647;SDS011;23490;53.656;10.076;2024-02-26T10:40:09;23.85;;;10.88;;
37647;SDS011;23490;53.656;10.076;2024-02-26T10:42:35;20.95;;;9.23;;
37647;SDS011;23490;53.656;10.076;2024-02-26T10:45:00;21.45;;;9.63;;
37647;SDS011;23490;53.656;10.076;2024-02-26T10:47:27;22.75;;;9.60;;
37647;SDS011;23490;53.656;10.076;2024-02-26T10:49:53;23.27;;;10.35;;
37647;SDS011;23490;53.656;10.076;2024-02-26T10:52:20;23.92;;;9.70;;
37647;SDS011;23490;53.656;10.076;2024-02-26T10:54:47;18.58;;;9.27;;
37647;SDS011;23490;53.656;10.076;2024-02-26T10:57:15;22.10;;;9.32;;
37647;SDS011;23490;53.656;10.076;2024-02-26T10:59:41;19.40;;;9.38;;
37647;SDS011;23490;53.656;10.076;2024-02-26T11:02:07;16.35;;;8.07;;
37647;SDS011;23490;53.656;10.076;2024-02-26T11:04:35;18.13;;;8.50;;
37647;SDS011;23490;53.656;10.076;2024-02-26T11:07:01;16.55;;;7.88;;
37647;SDS011;23490;53.656;10.076;2024-02-26T11:09:27;16.60;;;8.63;;
37647;SDS011;23490;53.656;10.076;2024-02-26T11:11:53;17.15;;;9.38;;
37647;SDS011;23490;53.656;10.076;2024-02-26T11:14:20;14.90;;;7.72;;
37647;SDS011;23490;53.656;10.076;2024-02-26T11:16:46;14.25;;;8.43;;
37647;SDS011;23490;53.656;10.076;2024-02-26T11:19:14;16.83;;;7.82;;
37647;SDS011;23490;53.656;10.076;2024-02-26T11:21:41;15.65;;;8.88;;
37647;SDS011;23490;53.656;10.076;2024-02-26T11:24:14;14.50;;;7.15;;
37647;SDS011;23490;53.656;10.076;2024-02-26T11:26:45;17.52;;;8.98;;
37647;SDS011;23490;53.656;10.076;2024-02-26T11:29:16;14.85;;;8.52;;
37647;SDS011;23490;53.656;10.076;2024-02-26T11:31:46;15.43;;;8.13;;
37647;SDS011;23490;53.656;10.076;2024-02-26T11:34:12;14.60;;;8.13;;
37647;SDS011;23490;53.656;10.076;2024-02-26T11:36:38;15.70;;;8.25;;
37647;SDS011;23490;53.656;10.076;2024-02-26T11:39:04;14.05;;;7.13;;
37647;SDS011;23490;53.656;10.076;2024-02-26T11:41:29;14.40;;;7.93;;
37647;SDS011;23490;53.656;10.076;2024-02-26T11:44:00;13.00;;;6.95;;
37647;SDS011;23490;53.656;10.076;2024-02-26T11:48:56;13.07;;;7.35;;
37647;SDS011;23490;53.656;10.076;2024-02-26T11:51:26;11.77;;;6.88;;
37647;SDS011;23490;53.656;10.076;2024-02-26T11:53:53;11.52;;;6.40;;
37647;SDS011;23490;53.656;10.076;2024-02-26T11:56:28;14.07;;;7.03;;
37647;SDS011;23490;53.656;10.076;2024-02-26T11:59:04;12.13;;;6.55;;
37647;SDS011;23490;53.656;10.076;2024-02-26T12:04:02;15.15;;;6.80;;
37647;SDS011;23490;53.656;10.076;2024-02-26T12:06:27;13.52;;;7.40;;
37647;SDS011;23490;53.656;10.076;2024-02-26T12:08:53;12.77;;;6.53;;
37647;SDS011;23490;53.656;10.076;2024-02-26T12:11:20;12.38;;;5.95;;
37647;SDS011;23490;53.656;10.076;2024-02-26T12:13:49;12.02;;;6.43;;
37647;SDS011;23490;53.656;10.076;2024-02-26T12:16:34;12.27;;;6.38;;
37647;SDS011;23490;53.656;10.076;2024-02-26T12:19:01;13.63;;;6.43;;
37647;SDS011;23490;53.656;10.076;2024-02-26T12:21:28;13.43;;;6.65;;
37647;SDS011;23490;53.656;10.076;2024-02-26T12:23:54;19.58;;;9.98;;
37647;SDS011;23490;53.656;10.076;2024-02-26T12:26:19;13.45;;;7.07;;
37647;SDS011;23490;53.656;10.076;2024-02-26T12:28:44;17.10;;;8.82;;
37647;SDS011;23490;53.656;10.076;2024-02-26T12:31:11;14.43;;;6.85;;
37647;SDS011;23490;53.656;10.076;2024-02-26T12:33:38;12.63;;;6.38;;
37647;SDS011;23490;53.656;10.076;2024-02-26T12:36:03;13.77;;;6.47;;
37647;SDS011;23490;53.656;10.076;2024-02-26T12:38:30;15.77;;;7.47;;
37647;SDS011;23490;53.656;10.076;2024-02-26T12:40:56;13.77;;;6.97;;
37647;SDS011;23490;53.656;10.076;2024-02-26T12:43:22;13.18;;;6.75;;
37647;SDS011;23490;53.656;10.076;2024-02-26T12:45:49;12.07;;;6.07;;
37647;SDS011;23490;53.656;10.076;2024-02-26T12:48:15;14.18;;;6.43;;
37647;SDS011;23490;53.656;10.076;2024-02-26T12:50:44;13.85;;;6.20;;
37647;SDS011;23490;53.656;10.076;2024-02-26T12:53:09;13.60;;;6.93;;
37647;SDS011;23490;53.656;10.076;2024-02-26T12:55:36;14.40;;;6.78;;
37647;SDS011;23490;53.656;10.076;2024-02-26T12:58:04;14.15;;;5.97;;
37647;SDS011;23490;53.656;10.076;2024-02-26T13:00:30;13.00;;;6.13;;
37647;SDS011;23490;53.656;10.076;2024-02-26T13:02:56;13.73;;;7.13;;
37647;SDS011;23490;53.656;10.076;2024-02-26T13:05:25;14.68;;;7.63;;
37647;SDS011;23490;53.656;10.076;2024-02-26T13:07:51;11.93;;;5.53;;
37647;SDS011;23490;53.656;10.076;2024-02-26T13:10:18;13.23;;;6.32;;
37647;SDS011;23490;53.656;10.076;2024-02-26T13:15:13;14.13;;;6.78;;
37647;SDS011;23490;53.656;10.076;2024-02-26T13:17:40;11.38;;;6.35;;
37647;SDS011;23490;53.656;10.076;2024-02-26T13:20:06;14.02;;;6.60;;
37647;SDS011;23490;53.656;10.076;2024-02-26T13:22:34;13.55;;;6.65;;
37647;SDS011;23490;53.656;10.076;2024-02-26T13:25:00;17.55;;;7.18;;
37647;SDS011;23490;53.656;10.076;2024-02-26T13:27:28;14.68;;;7.68;;
37647;SDS011;23490;53.656;10.076;2024-02-26T13:30:04;12.55;;;7.00;;
37647;SDS011;23490;53.656;10.076;2024-02-26T13:35:05;16.00;;;7.32;;
37647;SDS011;23490;53.656;10.076;2024-02-26T13:37:35;17.77;;;7.57;;
37647;SDS011;23490;53.656;10.076;2024-02-26T13:40:04;15.00;;;7.50;;
37647;SDS011;23490;53.656;10.076;2024-02-26T13:42:33;11.88;;;5.57;;
37647;SDS011;23490;53.656;10.076;2024-02-26T13:44:59;13.20;;;6.30;;
37647;SDS011;23490;53.656;10.076;2024-02-26T13:47:24;12.68;;;5.97;;
37647;SDS011;23490;53.656;10.076;2024-02-26T13:49:49;12.38;;;6.43;;
37647;SDS011;23490;53.656;10.076;2024-02-26T13:52:15;12.15;;;6.60;;
37647;SDS011;23490;53.656;10.076;2024-02-26T13:54:40;13.85;;;6.88;;
37647;SDS011;23490;53.656;10.076;2024-02-26T13:57:06;10.45;;;5.20;;
37647;SDS011;23490;53.656;10.076;2024-02-26T13:59:31;16.58;;;6.78;;
37647;SDS011;23490;53.656;10.076;2024-02-26T14:01:57;13.30;;;6.97;;
37647;SDS011;23490;53.656;10.076;2024-02-26T14:04:22;13.20;;;6.72;;
37647;SDS011;23490;53.656;10.076;2024-02-26T14:06:47;15.40;;;7.40;;
37647;SDS011;23490;53.656;10.076;2024-02-26T14:09:13;13.80;;;6.20;;
37647;SDS011;23490;53.656;10.076;2024-02-26T14:11:43;13.48;;;6.68;;
37647;SDS011;23490;53.656;10.076;2024-02-26T14:14:12;13.80;;;6.90;;
37647;SDS011;23490;53.656;10.076;2024-02-26T14:16:37;15.18;;;7.55;;
37647;SDS011;23490;53.656;10.076;2024-02-26T14:19:02;13.32;;;7.57;;
37647;SDS011;23490;53.656;10.076;2024-02-26T14:21:28;13.85;;;6.22;;
37647;SDS011;23490;53.656;10.076;2024-02-26T14:23:54;12.30;;;6.82;;
37647;SDS011;23490;53.656;10.076;2024-02-26T14:26:20;13.05;;;7.00;;